sensor_id;sensor_type;location;lat;lon;timestamp;temperature;humidity
15103;DHT22;7652;53.584;9.998;2022-11-15T00:01:08;7.30;99.90
15103;DHT22;7652;53.584;9.998;2022-11-15T00:04:11;7.30;99.90
15103;DHT22;7652;53.584;9.998;2022-11-15T00:07:15;7.30;99.90
15103;DHT22;7652;53.584;9.998;2022-11-15T00:10:39;7.30;99.90
15103;DHT22;7652;53.584;9.998;2022-11-15T00:13:42;7.30;99.90
15103;DHT22;7652;53.584;9.998;2022-11-15T00:16:45;7.30;99.90
15103;DHT22;7652;53.584;9.998;2022-11-15T00:19:48;7.30;99.90
15103;DHT22;7652;53.584;9.998;2022-11-15T00:22:53;7.40;99.90
15103;DHT22;7652;53.584;9.998;2022-11-15T00:25:56;7.40;99.90
15103;DHT22;7652;53.584;9.998;2022-11-15T00:29:00;7.40;99.90
15103;DHT22;7652;53.584;9.998;2022-11-15T00:32:02;7.60;99.90
15103;DHT22;7652;53.584;9.998;2022-11-15T00:35:06;7.70;99.90
15103;DHT22;7652;53.584;9.998;2022-11-15T00:38:10;7.70;99.90
15103;DHT22;7652;53.584;9.998;2022-11-15T00:41:13;7.80;99.90
15103;DHT22;7652;53.584;9.998;2022-11-15T00:44:16;7.90;99.90
15103;DHT22;7652;53.584;9.998;2022-11-15T00:47:19;7.80;99.90
15103;DHT22;7652;53.584;9.998;2022-11-15T00:50:22;7.80;99.90
15103;DHT22;7652;53.584;9.998;2022-11-15T00:53:27;7.80;99.90
15103;DHT22;7652;53.584;9.998;2022-11-15T00:56:31;7.80;99.90
15103;DHT22;7652;53.584;9.998;2022-11-15T00:59:34;7.80;99.90
15103;DHT22;7652;53.584;9.998;2022-11-15T01:02:38;7.90;99.90
15103;DHT22;7652;53.584;9.998;2022-11-15T01:05:41;7.80;99.90
15103;DHT22;7652;53.584;9.998;2022-11-15T01:08:45;7.90;99.90
15103;DHT22;7652;53.584;9.998;2022-11-15T01:11:48;7.90;99.90
15103;DHT22;7652;53.584;9.998;2022-11-15T01:14:51;7.90;99.90
15103;DHT22;7652;53.584;9.998;2022-11-15T01:17:54;7.90;99.90
15103;DHT22;7652;53.584;9.998;2022-11-15T01:20:57;8.00;99.90
15103;DHT22;7652;53.584;9.998;2022-11-15T01:24:01;7.80;99.90
15103;DHT22;7652;53.584;9.998;2022-11-15T01:27:04;7.70;99.90
15103;DHT22;7652;53.584;9.998;2022-11-15T01:30:08;7.70;99.90
15103;DHT22;7652;53.584;9.998;2022-11-15T01:33:11;7.70;99.90
15103;DHT22;7652;53.584;9.998;2022-11-15T01:36:16;7.60;99.90
15103;DHT22;7652;53.584;9.998;2022-11-15T01:39:20;7.50;99.90
15103;DHT22;7652;53.584;9.998;2022-11-15T01:42:23;7.50;99.90
15103;DHT22;7652;53.584;9.998;2022-11-15T01:45:26;7.40;99.90
15103;DHT22;7652;53.584;9.998;2022-11-15T01:48:32;7.30;99.90
15103;DHT22;7652;53.584;9.998;2022-11-15T01:51:36;7.30;99.90
15103;DHT22;7652;53.584;9.998;2022-11-15T01:54:40;7.30;99.90
15103;DHT22;7652;53.584;9.998;2022-11-15T01:57:45;7.30;99.90
15103;DHT22;7652;53.584;9.998;2022-11-15T02:00:49;7.30;99.90
15103;DHT22;7652;53.584;9.998;2022-11-15T02:03:57;7.30;99.90
15103;DHT22;7652;53.584;9.998;2022-11-15T02:07:03;7.20;99.90
15103;DHT22;7652;53.584;9.998;2022-11-15T02:10:11;7.20;99.90
15103;DHT22;7652;53.584;9.998;2022-11-15T02:13:15;7.10;99.90
15103;DHT22;7652;53.584;9.998;2022-11-15T02:16:28;7.20;99.90
15103;DHT22;7652;53.584;9.998;2022-11-15T02:20:02;7.20;99.90
15103;DHT22;7652;53.584;9.998;2022-11-15T02:23:42;7.10;99.90
15103;DHT22;7652;53.584;9.998;2022-11-15T02:27:25;7.10;99.90
15103;DHT22;7652;53.584;9.998;2022-11-15T02:30:41;7.00;99.90
15103;DHT22;7652;53.584;9.998;2022-11-15T02:33:53;7.00;99.90
15103;DHT22;7652;53.584;9.998;2022-11-15T02:37:03;6.90;99.90
15103;DHT22;7652;53.584;9.998;2022-11-15T02:40:11;6.90;99.90
15103;DHT22;7652;53.584;9.998;2022-11-15T02:43:21;6.90;99.90
15103;DHT22;7652;53.584;9.998;2022-11-15T02:46:50;6.90;99.90
15103;DHT22;7652;53.584;9.998;2022-11-15T02:50:13;6.90;99.90
15103;DHT22;7652;53.584;9.998;2022-11-15T02:53:24;6.90;99.90
15103;DHT22;7652;53.584;9.998;2022-11-15T02:56:27;6.90;99.90
15103;DHT22;7652;53.584;9.998;2022-11-15T02:59:52;6.90;99.90
15103;DHT22;7652;53.584;9.998;2022-11-15T05:44:33;8.10;99.90
15103;DHT22;7652;53.584;9.998;2022-11-15T05:47:39;8.20;99.90
15103;DHT22;7652;53.584;9.998;2022-11-15T05:50:45;8.20;99.90
15103;DHT22;7652;53.584;9.998;2022-11-15T05:53:50;8.20;99.90
15103;DHT22;7652;53.584;9.998;2022-11-15T05:56:54;8.10;99.90
15103;DHT22;7652;53.584;9.998;2022-11-15T05:59:59;8.30;99.90
15103;DHT22;7652;53.584;9.998;2022-11-15T06:03:02;8.30;99.90
15103;DHT22;7652;53.584;9.998;2022-11-15T06:06:05;8.40;99.90
15103;DHT22;7652;53.584;9.998;2022-11-15T06:09:15;8.30;99.90
15103;DHT22;7652;53.584;9.998;2022-11-15T06:12:18;8.40;99.90
15103;DHT22;7652;53.584;9.998;2022-11-15T06:15:23;8.50;99.90
15103;DHT22;7652;53.584;9.998;2022-11-15T06:18:26;8.60;99.90
15103;DHT22;7652;53.584;9.998;2022-11-15T06:21:29;8.50;99.90
15103;DHT22;7652;53.584;9.998;2022-11-15T06:24:32;8.50;99.90
15103;DHT22;7652;53.584;9.998;2022-11-15T06:27:35;8.60;99.90
15103;DHT22;7652;53.584;9.998;2022-11-15T06:30:39;8.60;99.90
15103;DHT22;7652;53.584;9.998;2022-11-15T06:33:42;8.70;99.90
15103;DHT22;7652;53.584;9.998;2022-11-15T06:36:45;8.70;99.90
15103;DHT22;7652;53.584;9.998;2022-11-15T06:39:48;8.70;99.90
15103;DHT22;7652;53.584;9.998;2022-11-15T06:42:57;8.70;99.90
15103;DHT22;7652;53.584;9.998;2022-11-15T06:46:03;8.60;99.90
15103;DHT22;7652;53.584;9.998;2022-11-15T06:49:06;8.60;99.90
15103;DHT22;7652;53.584;9.998;2022-11-15T06:52:10;8.70;99.90
15103;DHT22;7652;53.584;9.998;2022-11-15T06:55:13;8.80;99.90
15103;DHT22;7652;53.584;9.998;2022-11-15T06:58:16;8.80;99.90
15103;DHT22;7652;53.584;9.998;2022-11-15T07:01:21;8.90;99.90
15103;DHT22;7652;53.584;9.998;2022-11-15T07:04:24;8.90;99.90
15103;DHT22;7652;53.584;9.998;2022-11-15T07:07:27;9.00;99.90
15103;DHT22;7652;53.584;9.998;2022-11-15T07:10:30;9.10;99.90
15103;DHT22;7652;53.584;9.998;2022-11-15T07:13:34;9.20;99.90
15103;DHT22;7652;53.584;9.998;2022-11-15T07:16:40;9.10;99.90
15103;DHT22;7652;53.584;9.998;2022-11-15T07:19:43;9.20;99.90
15103;DHT22;7652;53.584;9.998;2022-11-15T07:22:46;9.20;99.90
15103;DHT22;7652;53.584;9.998;2022-11-15T07:25:49;9.20;99.90
15103;DHT22;7652;53.584;9.998;2022-11-15T07:28:52;9.00;99.90
15103;DHT22;7652;53.584;9.998;2022-11-15T07:31:56;9.20;99.90
15103;DHT22;7652;53.584;9.998;2022-11-15T07:34:59;9.30;99.90
15103;DHT22;7652;53.584;9.998;2022-11-15T07:38:03;9.30;99.90
15103;DHT22;7652;53.584;9.998;2022-11-15T07:41:06;9.30;99.90
15103;DHT22;7652;53.584;9.998;2022-11-15T07:44:09;9.30;99.90
15103;DHT22;7652;53.584;9.998;2022-11-15T07:47:14;9.30;99.90
15103;DHT22;7652;53.584;9.998;2022-11-15T07:50:17;9.30;99.90
15103;DHT22;7652;53.584;9.998;2022-11-15T07:53:20;9.30;99.90
15103;DHT22;7652;53.584;9.998;2022-11-15T07:56:23;9.30;99.90
15103;DHT22;7652;53.584;9.998;2022-11-15T07:59:26;9.20;99.90
15103;DHT22;7652;53.584;9.998;2022-11-15T08:02:31;9.20;99.90
15103;DHT22;7652;53.584;9.998;2022-11-15T08:05:35;9.30;99.90
15103;DHT22;7652;53.584;9.998;2022-11-15T08:08:38;9.30;99.90
15103;DHT22;7652;53.584;9.998;2022-11-15T08:11:41;9.20;99.90
15103;DHT22;7652;53.584;9.998;2022-11-15T08:14:44;9.30;99.90
15103;DHT22;7652;53.584;9.998;2022-11-15T08:17:53;9.20;99.90
15103;DHT22;7652;53.584;9.998;2022-11-15T08:20:59;9.20;99.90
15103;DHT22;7652;53.584;9.998;2022-11-15T08:24:02;9.30;99.90
15103;DHT22;7652;53.584;9.998;2022-11-15T08:27:05;9.40;99.90
15103;DHT22;7652;53.584;9.998;2022-11-15T08:30:16;9.50;99.90
15103;DHT22;7652;53.584;9.998;2022-11-15T08:33:21;9.40;99.90
15103;DHT22;7652;53.584;9.998;2022-11-15T08:36:24;9.50;99.90
15103;DHT22;7652;53.584;9.998;2022-11-15T08:39:27;9.40;99.90
15103;DHT22;7652;53.584;9.998;2022-11-15T08:42:30;9.50;99.90
15103;DHT22;7652;53.584;9.998;2022-11-15T08:45:34;9.60;99.90
15103;DHT22;7652;53.584;9.998;2022-11-15T08:48:39;9.60;99.90
15103;DHT22;7652;53.584;9.998;2022-11-15T08:51:42;9.60;99.90
15103;DHT22;7652;53.584;9.998;2022-11-15T08:54:45;9.60;99.90
15103;DHT22;7652;53.584;9.998;2022-11-15T08:57:48;9.70;99.90
15103;DHT22;7652;53.584;9.998;2022-11-15T09:00:51;9.80;99.90
15103;DHT22;7652;53.584;9.998;2022-11-15T09:03:56;9.70;99.90
15103;DHT22;7652;53.584;9.998;2022-11-15T09:06:58;9.80;99.90
15103;DHT22;7652;53.584;9.998;2022-11-15T09:10:02;9.80;99.90
15103;DHT22;7652;53.584;9.998;2022-11-15T09:13:05;9.90;99.90
15103;DHT22;7652;53.584;9.998;2022-11-15T09:16:08;10.00;99.90
15103;DHT22;7652;53.584;9.998;2022-11-15T09:19:14;10.00;99.90
15103;DHT22;7652;53.584;9.998;2022-11-15T09:22:18;10.10;99.90
15103;DHT22;7652;53.584;9.998;2022-11-15T09:25:21;10.10;99.90
15103;DHT22;7652;53.584;9.998;2022-11-15T09:28:24;10.20;99.90
15103;DHT22;7652;53.584;9.998;2022-11-15T09:31:27;10.30;99.90
15103;DHT22;7652;53.584;9.998;2022-11-15T09:34:32;10.30;99.90
15103;DHT22;7652;53.584;9.998;2022-11-15T09:37:35;10.40;99.90
15103;DHT22;7652;53.584;9.998;2022-11-15T09:40:38;10.40;99.90
15103;DHT22;7652;53.584;9.998;2022-11-15T09:43:47;10.50;99.90
15103;DHT22;7652;53.584;9.998;2022-11-15T09:46:58;10.50;99.90
15103;DHT22;7652;53.584;9.998;2022-11-15T09:50:10;10.60;99.90
15103;DHT22;7652;53.584;9.998;2022-11-15T09:53:17;10.80;99.90
15103;DHT22;7652;53.584;9.998;2022-11-15T09:56:44;10.70;99.90
15103;DHT22;7652;53.584;9.998;2022-11-15T09:59:55;10.70;99.90
15103;DHT22;7652;53.584;9.998;2022-11-15T10:03:24;10.90;99.90
15103;DHT22;7652;53.584;9.998;2022-11-15T10:06:31;10.80;99.90
15103;DHT22;7652;53.584;9.998;2022-11-15T10:09:42;10.90;99.90
15103;DHT22;7652;53.584;9.998;2022-11-15T10:12:48;10.90;99.90
15103;DHT22;7652;53.584;9.998;2022-11-15T10:15:54;11.00;99.90
15103;DHT22;7652;53.584;9.998;2022-11-15T10:19:07;11.00;99.90
15103;DHT22;7652;53.584;9.998;2022-11-15T10:22:27;11.10;99.90
15103;DHT22;7652;53.584;9.998;2022-11-15T10:25:32;11.10;99.90
15103;DHT22;7652;53.584;9.998;2022-11-15T10:28:35;11.20;99.90
15103;DHT22;7652;53.584;9.998;2022-11-15T10:31:39;11.30;99.90
15103;DHT22;7652;53.584;9.998;2022-11-15T10:34:43;11.40;99.90
15103;DHT22;7652;53.584;9.998;2022-11-15T10:37:47;11.40;99.90
15103;DHT22;7652;53.584;9.998;2022-11-15T10:41:07;11.40;99.90
15103;DHT22;7652;53.584;9.998;2022-11-15T10:44:22;11.30;99.90
15103;DHT22;7652;53.584;9.998;2022-11-15T10:47:28;11.30;99.90
15103;DHT22;7652;53.584;9.998;2022-11-15T10:50:41;11.40;99.90
15103;DHT22;7652;53.584;9.998;2022-11-15T10:53:46;11.50;99.90
15103;DHT22;7652;53.584;9.998;2022-11-15T10:56:50;11.50;99.90
15103;DHT22;7652;53.584;9.998;2022-11-15T10:59:56;11.50;99.90
15103;DHT22;7652;53.584;9.998;2022-11-15T11:03:01;11.60;99.90
15103;DHT22;7652;53.584;9.998;2022-11-15T11:06:07;11.60;99.90
15103;DHT22;7652;53.584;9.998;2022-11-15T11:09:28;11.60;99.90
15103;DHT22;7652;53.584;9.998;2022-11-15T11:12:33;11.70;99.90
15103;DHT22;7652;53.584;9.998;2022-11-15T11:15:37;11.80;99.90
15103;DHT22;7652;53.584;9.998;2022-11-15T11:18:48;11.80;99.90
15103;DHT22;7652;53.584;9.998;2022-11-15T11:22:03;11.80;99.90
15103;DHT22;7652;53.584;9.998;2022-11-15T11:25:18;11.90;99.90
15103;DHT22;7652;53.584;9.998;2022-11-15T11:28:33;11.90;99.90
15103;DHT22;7652;53.584;9.998;2022-11-15T11:31:46;12.00;99.90
15103;DHT22;7652;53.584;9.998;2022-11-15T11:34:58;12.00;99.90
15103;DHT22;7652;53.584;9.998;2022-11-15T11:38:17;12.00;99.90
15103;DHT22;7652;53.584;9.998;2022-11-15T11:41:38;12.10;99.90
15103;DHT22;7652;53.584;9.998;2022-11-15T11:44:52;12.00;99.90
15103;DHT22;7652;53.584;9.998;2022-11-15T11:48:12;12.00;99.90
15103;DHT22;7652;53.584;9.998;2022-11-15T11:51:20;12.20;99.90
15103;DHT22;7652;53.584;9.998;2022-11-15T11:54:32;12.20;99.90
15103;DHT22;7652;53.584;9.998;2022-11-15T11:57:45;12.20;99.90
15103;DHT22;7652;53.584;9.998;2022-11-15T12:00:54;12.20;99.90
15103;DHT22;7652;53.584;9.998;2022-11-15T12:04:01;12.20;99.90
15103;DHT22;7652;53.584;9.998;2022-11-15T12:07:11;12.30;99.90
15103;DHT22;7652;53.584;9.998;2022-11-15T12:10:20;12.30;99.90
15103;DHT22;7652;53.584;9.998;2022-11-15T12:13:28;12.40;99.90
15103;DHT22;7652;53.584;9.998;2022-11-15T12:16:35;12.70;99.90
15103;DHT22;7652;53.584;9.998;2022-11-15T12:19:38;13.20;99.90
15103;DHT22;7652;53.584;9.998;2022-11-15T12:22:45;13.50;99.90
15103;DHT22;7652;53.584;9.998;2022-11-15T12:25:52;13.80;99.90
15103;DHT22;7652;53.584;9.998;2022-11-15T12:29:01;14.20;99.90
15103;DHT22;7652;53.584;9.998;2022-11-15T12:32:18;14.40;99.90
15103;DHT22;7652;53.584;9.998;2022-11-15T12:35:28;14.70;99.90
15103;DHT22;7652;53.584;9.998;2022-11-15T12:38:54;15.00;99.90
15103;DHT22;7652;53.584;9.998;2022-11-15T12:45:37;14.80;99.90
15103;DHT22;7652;53.584;9.998;2022-11-15T12:48:58;14.90;99.90
15103;DHT22;7652;53.584;9.998;2022-11-15T12:52:07;15.00;99.90
15103;DHT22;7652;53.584;9.998;2022-11-15T12:55:31;15.00;99.90
15103;DHT22;7652;53.584;9.998;2022-11-15T12:58:41;15.30;99.90
15103;DHT22;7652;53.584;9.998;2022-11-15T13:01:59;15.40;99.90
15103;DHT22;7652;53.584;9.998;2022-11-15T13:05:55;15.50;99.90
15103;DHT22;7652;53.584;9.998;2022-11-15T13:08:59;15.30;99.90
15103;DHT22;7652;53.584;9.998;2022-11-15T13:12:03;15.00;99.90
15103;DHT22;7652;53.584;9.998;2022-11-15T13:15:31;14.80;99.90
15103;DHT22;7652;53.584;9.998;2022-11-15T13:18:53;14.70;99.90
15103;DHT22;7652;53.584;9.998;2022-11-15T13:21:56;14.80;99.90
15103;DHT22;7652;53.584;9.998;2022-11-15T13:25:20;14.80;99.90
15103;DHT22;7652;53.584;9.998;2022-11-15T13:28:31;14.60;99.90
15103;DHT22;7652;53.584;9.998;2022-11-15T13:31:36;14.70;99.90
15103;DHT22;7652;53.584;9.998;2022-11-15T13:34:45;14.70;99.90
15103;DHT22;7652;53.584;9.998;2022-11-15T13:37:55;14.60;99.90
15103;DHT22;7652;53.584;9.998;2022-11-15T13:41:11;14.50;99.90
15103;DHT22;7652;53.584;9.998;2022-11-15T13:44:20;14.50;99.90
15103;DHT22;7652;53.584;9.998;2022-11-15T13:47:25;14.50;99.90
15103;DHT22;7652;53.584;9.998;2022-11-15T13:50:33;14.60;99.90
15103;DHT22;7652;53.584;9.998;2022-11-15T13:53:40;14.50;99.90
15103;DHT22;7652;53.584;9.998;2022-11-15T13:56:47;14.70;99.90
15103;DHT22;7652;53.584;9.998;2022-11-15T13:59:52;15.00;99.90
15103;DHT22;7652;53.584;9.998;2022-11-15T14:02:57;15.40;99.90
15103;DHT22;7652;53.584;9.998;2022-11-15T14:06:11;15.50;99.90
15103;DHT22;7652;53.584;9.998;2022-11-15T14:09:35;15.40;99.90
15103;DHT22;7652;53.584;9.998;2022-11-15T14:12:38;15.20;99.90
15103;DHT22;7652;53.584;9.998;2022-11-15T14:15:42;14.90;99.90
15103;DHT22;7652;53.584;9.998;2022-11-15T14:18:47;14.70;99.90
15103;DHT22;7652;53.584;9.998;2022-11-15T14:22:10;14.60;99.90
15103;DHT22;7652;53.584;9.998;2022-11-15T14:25:16;14.50;99.90
15103;DHT22;7652;53.584;9.998;2022-11-15T14:28:31;14.30;99.90
15103;DHT22;7652;53.584;9.998;2022-11-15T14:31:38;14.20;99.90
15103;DHT22;7652;53.584;9.998;2022-11-15T14:34:45;13.90;99.90
15103;DHT22;7652;53.584;9.998;2022-11-15T14:37:49;13.70;99.90
15103;DHT22;7652;53.584;9.998;2022-11-15T14:40:52;13.60;99.90
15103;DHT22;7652;53.584;9.998;2022-11-15T14:43:57;13.50;99.90
15103;DHT22;7652;53.584;9.998;2022-11-15T14:47:00;13.50;99.90
15103;DHT22;7652;53.584;9.998;2022-11-15T14:50:04;13.40;99.90
15103;DHT22;7652;53.584;9.998;2022-11-15T14:53:11;13.40;99.90
15103;DHT22;7652;53.584;9.998;2022-11-15T14:56:15;13.30;99.90
15103;DHT22;7652;53.584;9.998;2022-11-15T14:59:18;13.30;99.90
15103;DHT22;7652;53.584;9.998;2022-11-15T15:02:23;13.20;99.90
15103;DHT22;7652;53.584;9.998;2022-11-15T15:05:31;13.10;99.90
15103;DHT22;7652;53.584;9.998;2022-11-15T15:08:36;13.00;99.90
15103;DHT22;7652;53.584;9.998;2022-11-15T15:11:39;13.00;99.90
15103;DHT22;7652;53.584;9.998;2022-11-15T15:14:42;12.80;99.90
15103;DHT22;7652;53.584;9.998;2022-11-15T15:17:45;12.80;99.90
15103;DHT22;7652;53.584;9.998;2022-11-15T15:20:53;12.70;99.90
15103;DHT22;7652;53.584;9.998;2022-11-15T15:23:58;12.80;99.90
15103;DHT22;7652;53.584;9.998;2022-11-15T15:27:01;12.70;99.90
15103;DHT22;7652;53.584;9.998;2022-11-15T15:30:05;12.70;99.90
15103;DHT22;7652;53.584;9.998;2022-11-15T15:33:08;12.50;99.90
15103;DHT22;7652;53.584;9.998;2022-11-15T15:36:11;12.60;99.90
15103;DHT22;7652;53.584;9.998;2022-11-15T15:39:16;12.40;99.90
15103;DHT22;7652;53.584;9.998;2022-11-15T15:42:20;12.40;99.90
15103;DHT22;7652;53.584;9.998;2022-11-15T15:45:25;12.30;99.90
15103;DHT22;7652;53.584;9.998;2022-11-15T15:48:28;12.20;99.90
15103;DHT22;7652;53.584;9.998;2022-11-15T15:51:32;12.10;99.90
15103;DHT22;7652;53.584;9.998;2022-11-15T15:54:36;12.00;99.90
15103;DHT22;7652;53.584;9.998;2022-11-15T15:57:39;12.00;99.90
15103;DHT22;7652;53.584;9.998;2022-11-15T16:00:42;12.00;99.90
15103;DHT22;7652;53.584;9.998;2022-11-15T16:03:45;11.90;99.90
15103;DHT22;7652;53.584;9.998;2022-11-15T16:06:48;11.90;99.90
15103;DHT22;7652;53.584;9.998;2022-11-15T16:09:55;11.90;99.90
15103;DHT22;7652;53.584;9.998;2022-11-15T16:13:04;11.80;99.90
15103;DHT22;7652;53.584;9.998;2022-11-15T16:16:09;11.80;99.90
15103;DHT22;7652;53.584;9.998;2022-11-15T16:19:15;11.80;99.90
15103;DHT22;7652;53.584;9.998;2022-11-15T16:22:18;11.80;99.90
15103;DHT22;7652;53.584;9.998;2022-11-15T16:25:22;11.80;99.90
15103;DHT22;7652;53.584;9.998;2022-11-15T16:28:27;11.80;99.90
15103;DHT22;7652;53.584;9.998;2022-11-15T16:31:31;11.80;99.90
15103;DHT22;7652;53.584;9.998;2022-11-15T16:34:34;11.90;99.90
15103;DHT22;7652;53.584;9.998;2022-11-15T16:37:43;11.80;99.90
15103;DHT22;7652;53.584;9.998;2022-11-15T16:40:49;11.90;99.90
15103;DHT22;7652;53.584;9.998;2022-11-15T16:43:52;11.90;99.90
15103;DHT22;7652;53.584;9.998;2022-11-15T16:46:55;11.90;99.90
15103;DHT22;7652;53.584;9.998;2022-11-15T16:49:58;11.90;99.90
15103;DHT22;7652;53.584;9.998;2022-11-15T16:53:01;11.90;99.90
15103;DHT22;7652;53.584;9.998;2022-11-15T16:56:15;11.90;99.90
15103;DHT22;7652;53.584;9.998;2022-11-15T16:59:20;11.90;99.90
15103;DHT22;7652;53.584;9.998;2022-11-15T17:02:23;11.90;99.90
15103;DHT22;7652;53.584;9.998;2022-11-15T17:05:26;11.80;99.90
15103;DHT22;7652;53.584;9.998;2022-11-15T17:08:29;11.70;99.90
15103;DHT22;7652;53.584;9.998;2022-11-15T17:11:33;11.70;99.90
15103;DHT22;7652;53.584;9.998;2022-11-15T17:14:36;11.70;99.90
15103;DHT22;7652;53.584;9.998;2022-11-15T17:17:40;11.70;99.90
15103;DHT22;7652;53.584;9.998;2022-11-15T17:20:43;11.70;99.90
15103;DHT22;7652;53.584;9.998;2022-11-15T17:23:46;11.60;99.90
15103;DHT22;7652;53.584;9.998;2022-11-15T17:26:50;11.50;99.90
15103;DHT22;7652;53.584;9.998;2022-11-15T17:29:53;11.50;99.90
15103;DHT22;7652;53.584;9.998;2022-11-15T17:32:56;11.50;99.90
15103;DHT22;7652;53.584;9.998;2022-11-15T17:36:01;11.50;99.90
15103;DHT22;7652;53.584;9.998;2022-11-15T17:39:04;11.50;99.90
15103;DHT22;7652;53.584;9.998;2022-11-15T17:42:08;11.50;99.90
15103;DHT22;7652;53.584;9.998;2022-11-15T17:45:12;11.60;99.90
15103;DHT22;7652;53.584;9.998;2022-11-15T17:48:15;11.70;99.90
15103;DHT22;7652;53.584;9.998;2022-11-15T17:51:18;11.70;99.90
15103;DHT22;7652;53.584;9.998;2022-11-15T17:54:21;11.70;99.90
15103;DHT22;7652;53.584;9.998;2022-11-15T17:57:25;11.80;99.90
15103;DHT22;7652;53.584;9.998;2022-11-15T18:00:28;11.70;99.90
15103;DHT22;7652;53.584;9.998;2022-11-15T18:03:33;11.80;99.90
15103;DHT22;7652;53.584;9.998;2022-11-15T18:06:36;11.80;99.90
15103;DHT22;7652;53.584;9.998;2022-11-15T18:09:39;11.80;99.90
15103;DHT22;7652;53.584;9.998;2022-11-15T18:12:46;11.80;99.90
15103;DHT22;7652;53.584;9.998;2022-11-15T18:15:53;11.80;99.90
15103;DHT22;7652;53.584;9.998;2022-11-15T18:18:57;11.80;99.90
15103;DHT22;7652;53.584;9.998;2022-11-15T18:22:00;11.90;99.90
15103;DHT22;7652;53.584;9.998;2022-11-15T18:25:06;11.90;99.90
15103;DHT22;7652;53.584;9.998;2022-11-15T18:28:10;11.80;99.90
15103;DHT22;7652;53.584;9.998;2022-11-15T18:31:15;11.90;99.90
15103;DHT22;7652;53.584;9.998;2022-11-15T18:34:18;11.90;99.90
15103;DHT22;7652;53.584;9.998;2022-11-15T18:37:21;11.80;99.90
15103;DHT22;7652;53.584;9.998;2022-11-15T18:40:24;11.80;99.90
15103;DHT22;7652;53.584;9.998;2022-11-15T18:43:28;11.80;99.90
15103;DHT22;7652;53.584;9.998;2022-11-15T18:46:32;11.70;99.90
15103;DHT22;7652;53.584;9.998;2022-11-15T18:49:35;11.70;99.90
15103;DHT22;7652;53.584;9.998;2022-11-15T18:52:38;11.70;99.90
15103;DHT22;7652;53.584;9.998;2022-11-15T18:55:41;11.70;99.90
15103;DHT22;7652;53.584;9.998;2022-11-15T18:58:47;11.70;99.90
15103;DHT22;7652;53.584;9.998;2022-11-15T19:01:50;11.70;99.90
15103;DHT22;7652;53.584;9.998;2022-11-15T19:04:53;11.70;99.90
15103;DHT22;7652;53.584;9.998;2022-11-15T19:07:56;11.70;99.90
15103;DHT22;7652;53.584;9.998;2022-11-15T19:11:02;11.70;99.90
15103;DHT22;7652;53.584;9.998;2022-11-15T19:14:08;11.60;99.90
15103;DHT22;7652;53.584;9.998;2022-11-15T19:17:11;11.60;99.90
15103;DHT22;7652;53.584;9.998;2022-11-15T19:20:15;11.60;99.90
15103;DHT22;7652;53.584;9.998;2022-11-15T19:23:18;11.60;99.90
15103;DHT22;7652;53.584;9.998;2022-11-15T19:26:22;11.70;99.90
15103;DHT22;7652;53.584;9.998;2022-11-15T19:29:26;11.60;99.90
15103;DHT22;7652;53.584;9.998;2022-11-15T19:32:29;11.50;99.90
15103;DHT22;7652;53.584;9.998;2022-11-15T19:35:32;11.50;99.90
15103;DHT22;7652;53.584;9.998;2022-11-15T19:38:35;11.60;99.90
15103;DHT22;7652;53.584;9.998;2022-11-15T19:41:39;11.60;99.90
15103;DHT22;7652;53.584;9.998;2022-11-15T19:44:44;11.60;99.90
15103;DHT22;7652;53.584;9.998;2022-11-15T19:47:47;11.60;99.90
15103;DHT22;7652;53.584;9.998;2022-11-15T19:50:51;11.70;99.90
15103;DHT22;7652;53.584;9.998;2022-11-15T19:53:55;11.80;99.90
15103;DHT22;7652;53.584;9.998;2022-11-15T19:56:58;11.70;99.90
15103;DHT22;7652;53.584;9.998;2022-11-15T20:00:04;11.70;99.90
15103;DHT22;7652;53.584;9.998;2022-11-15T20:03:08;11.80;99.90
15103;DHT22;7652;53.584;9.998;2022-11-15T20:06:14;11.70;99.90
15103;DHT22;7652;53.584;9.998;2022-11-15T20:09:18;11.80;99.90
15103;DHT22;7652;53.584;9.998;2022-11-15T20:12:21;11.70;99.90
15103;DHT22;7652;53.584;9.998;2022-11-15T20:15:25;11.80;99.90
15103;DHT22;7652;53.584;9.998;2022-11-15T20:18:29;11.80;99.90
15103;DHT22;7652;53.584;9.998;2022-11-15T20:21:33;11.90;99.90
15103;DHT22;7652;53.584;9.998;2022-11-15T20:24:36;11.80;99.90
15103;DHT22;7652;53.584;9.998;2022-11-15T20:27:39;11.90;99.90
15103;DHT22;7652;53.584;9.998;2022-11-15T20:30:44;11.90;99.90
15103;DHT22;7652;53.584;9.998;2022-11-15T20:33:47;11.80;99.90
15103;DHT22;7652;53.584;9.998;2022-11-15T20:36:50;11.80;99.90
15103;DHT22;7652;53.584;9.998;2022-11-15T20:39:53;11.90;99.90
15103;DHT22;7652;53.584;9.998;2022-11-15T20:42:56;11.90;99.90
15103;DHT22;7652;53.584;9.998;2022-11-15T20:46:01;11.90;99.90
15103;DHT22;7652;53.584;9.998;2022-11-15T20:49:04;11.90;99.90
15103;DHT22;7652;53.584;9.998;2022-11-15T20:52:07;12.00;99.90
15103;DHT22;7652;53.584;9.998;2022-11-15T20:55:10;11.90;99.90
15103;DHT22;7652;53.584;9.998;2022-11-15T20:58:14;12.00;99.90
15103;DHT22;7652;53.584;9.998;2022-11-15T21:01:20;12.00;99.90
15103;DHT22;7652;53.584;9.998;2022-11-15T21:04:24;12.00;99.90
15103;DHT22;7652;53.584;9.998;2022-11-15T21:07:27;11.90;99.90
15103;DHT22;7652;53.584;9.998;2022-11-15T21:10:31;11.90;99.90
15103;DHT22;7652;53.584;9.998;2022-11-15T21:13:51;11.90;99.90
15103;DHT22;7652;53.584;9.998;2022-11-15T21:16:56;11.90;99.90
15103;DHT22;7652;53.584;9.998;2022-11-15T21:19:59;11.90;99.90
15103;DHT22;7652;53.584;9.998;2022-11-15T21:23:02;11.90;99.90
15103;DHT22;7652;53.584;9.998;2022-11-15T21:26:05;11.90;99.90
15103;DHT22;7652;53.584;9.998;2022-11-15T21:29:08;11.80;99.90
15103;DHT22;7652;53.584;9.998;2022-11-15T21:32:12;11.80;99.90
15103;DHT22;7652;53.584;9.998;2022-11-15T21:35:15;11.90;99.90
15103;DHT22;7652;53.584;9.998;2022-11-15T21:38:18;11.90;99.90
15103;DHT22;7652;53.584;9.998;2022-11-15T21:41:21;11.80;99.90
15103;DHT22;7652;53.584;9.998;2022-11-15T21:44:24;11.80;99.90
15103;DHT22;7652;53.584;9.998;2022-11-15T21:47:28;11.80;99.90
15103;DHT22;7652;53.584;9.998;2022-11-15T21:50:31;11.80;99.90
15103;DHT22;7652;53.584;9.998;2022-11-15T21:53:34;11.80;99.90
15103;DHT22;7652;53.584;9.998;2022-11-15T21:56:37;11.70;99.90
15103;DHT22;7652;53.584;9.998;2022-11-15T21:59:40;11.80;99.90
15103;DHT22;7652;53.584;9.998;2022-11-15T22:02:59;11.70;99.90
15103;DHT22;7652;53.584;9.998;2022-11-15T22:06:02;11.70;99.90
15103;DHT22;7652;53.584;9.998;2022-11-15T22:09:05;11.70;99.90
15103;DHT22;7652;53.584;9.998;2022-11-15T22:12:08;11.70;99.90
15103;DHT22;7652;53.584;9.998;2022-11-15T22:15:11;11.80;99.90
15103;DHT22;7652;53.584;9.998;2022-11-15T22:18:16;11.70;99.90
15103;DHT22;7652;53.584;9.998;2022-11-15T22:21:27;11.70;99.90
15103;DHT22;7652;53.584;9.998;2022-11-15T22:24:30;11.70;99.90
15103;DHT22;7652;53.584;9.998;2022-11-15T22:27:33;11.60;99.90
15103;DHT22;7652;53.584;9.998;2022-11-15T22:30:36;11.60;99.90
15103;DHT22;7652;53.584;9.998;2022-11-15T22:33:40;11.60;99.90
15103;DHT22;7652;53.584;9.998;2022-11-15T22:36:43;11.60;99.90
15103;DHT22;7652;53.584;9.998;2022-11-15T22:40:07;11.70;99.90
15103;DHT22;7652;53.584;9.998;2022-11-15T22:43:11;11.60;99.90
15103;DHT22;7652;53.584;9.998;2022-11-15T22:46:14;11.60;99.90
15103;DHT22;7652;53.584;9.998;2022-11-15T22:49:19;11.60;99.90